Time;durP1;ratioP1;P1;durP2;ratioP2;P2;SDS_P1;SDS_P2;PMS_P1;PMS_P2;Temp;Humidity;BMP_temperature;BMP_pressure;BME280_temperature;BME280_humidity;BME280_pressure;Samples;Min_cycle;Max_cycle;Signal;HPM_P1;HPM_P2
2023/10/22 00:01:18;;;;;;;0.82;0.65;;;10.50;99.90;;;;;;5015276;28;20056;-64
2023/10/22 00:03:51;;;;;;;0.80;0.70;;;10.50;99.90;;;;;;5020912;28;20069;-64
2023/10/22 00:06:23;;;;;;;0.77;0.57;;;10.50;99.90;;;;;;5000725;28;20046;-64
2023/10/22 00:08:49;;;;;;;1.13;0.52;;;10.50;99.90;;;;;;5007604;28;20042;-64
2023/10/22 00:11:21;;;;;;;1.15;0.70;;;10.50;99.90;;;;;;5007261;28;20049;-64
2023/10/22 00:13:54;;;;;;;1.40;0.50;;;10.50;99.90;;;;;;5007667;28;20526;-64
2023/10/22 00:16:25;;;;;;;1.08;0.50;;;10.50;99.90;;;;;;5007002;28;20048;-64
2023/10/22 00:18:57;;;;;;;1.70;0.50;;;10.50;99.90;;;;;;5015445;28;20152;-64
2023/10/22 00:21:29;;;;;;;0.85;0.40;;;10.50;99.90;;;;;;5015127;28;20065;-64
2023/10/22 00:24:01;;;;;;;0.90;0.50;;;10.50;99.90;;;;;;5013656;28;20076;-64
2023/10/22 00:26:33;;;;;;;1.08;0.40;;;10.50;99.90;;;;;;5018570;28;20042;-64
2023/10/22 00:29:05;;;;;;;1.23;0.50;;;10.40;99.90;;;;;;5011087;28;20037;-64
2023/10/22 00:31:37;;;;;;;1.10;0.40;;;10.50;99.90;;;;;;5013642;28;20408;-64
2023/10/22 00:34:09;;;;;;;2.35;0.40;;;10.40;99.90;;;;;;5020453;28;20431;-64
2023/10/22 00:36:41;;;;;;;3.67;0.70;;;10.50;99.90;;;;;;5022080;28;20062;-64
2023/10/22 00:39:13;;;;;;;1.05;0.40;;;10.50;99.90;;;;;;5004292;28;20045;-64
2023/10/22 00:41:45;;;;;;;2.03;0.43;;;10.50;99.90;;;;;;5001175;28;20068;-64
2023/10/22 00:44:17;;;;;;;0.40;0.30;;;10.50;99.90;;;;;;5003956;28;20547;-64
2023/10/22 00:46:49;;;;;;;0.45;0.30;;;10.40;99.90;;;;;;5009524;28;20064;-64
2023/10/22 00:49:17;;;;;;;0.70;0.40;;;10.40;99.90;;;;;;5008167;28;20136;-64
2023/10/22 00:51:50;;;;;;;3.85;0.52;;;10.40;99.90;;;;;;5018351;28;20112;-64
2023/10/22 00:54:18;;;;;;;1.00;0.38;;;10.40;99.90;;;;;;5008092;28;20065;-64
2023/10/22 00:56:53;;;;;;;1.02;0.40;;;10.40;99.90;;;;;;5010580;28;20130;-64
2023/10/22 00:59:20;;;;;;;3.05;0.50;;;10.30;99.90;;;;;;5010995;28;20041;-64
2023/10/22 01:01:47;;;;;;;0.75;0.40;;;10.30;99.90;;;;;;5009314;28;20122;-64
2023/10/22 01:04:19;;;;;;;1.60;0.50;;;10.30;99.90;;;;;;5007732;28;20049;-64
2023/10/22 01:06:51;;;;;;;1.50;0.47;;;10.30;99.90;;;;;;5007464;28;20049;-64
2023/10/22 01:09:23;;;;;;;2.25;0.60;;;10.20;99.90;;;;;;5004241;28;20050;-64
2023/10/22 01:11:59;;;;;;;1.17;0.50;;;10.20;99.90;;;;;;5009217;28;20133;-64
2023/10/22 01:14:26;;;;;;;0.68;0.45;;;10.20;99.90;;;;;;4989948;28;20574;-64
2023/10/22 01:16:58;;;;;;;0.65;0.32;;;10.20;99.90;;;;;;5002655;28;20061;-65
2023/10/22 01:19:31;;;;;;;0.80;0.40;;;10.30;99.90;;;;;;5011203;28;20447;-65
2023/10/22 01:21:57;;;;;;;1.80;0.40;;;10.40;99.90;;;;;;5011374;28;20038;-65
2023/10/22 01:24:25;;;;;;;1.65;0.50;;;10.40;99.90;;;;;;5015018;28;20050;-65
2023/10/22 01:26:57;;;;;;;2.73;0.70;;;10.40;99.90;;;;;;5005218;28;20042;-67
2023/10/22 01:29:23;;;;;;;0.68;0.40;;;10.40;99.90;;;;;;5001907;28;20030;-65
2023/10/22 01:31:55;;;;;;;2.25;0.45;;;10.30;99.90;;;;;;4993378;28;20050;-65
2023/10/22 01:34:27;;;;;;;0.70;0.50;;;10.30;99.90;;;;;;5008352;28;20050;-64
2023/10/22 01:36:59;;;;;;;1.30;0.43;;;10.30;99.90;;;;;;5003516;28;20054;-63
2023/10/22 01:39:31;;;;;;;0.65;0.30;;;10.20;99.90;;;;;;5000070;28;20058;-63
2023/10/22 01:42:04;;;;;;;0.75;0.60;;;10.10;99.90;;;;;;5001906;28;20047;-63
2023/10/22 01:44:36;;;;;;;1.52;0.43;;;10.10;99.90;;;;;;5001269;28;20543;-63
2023/10/22 01:47:10;;;;;;;0.63;0.53;;;10.10;99.90;;;;;;5003437;28;20073;-64
2023/10/22 01:49:38;;;;;;;0.80;0.50;;;10.10;99.90;;;;;;5005746;28;20039;-64
2023/10/22 01:52:05;;;;;;;0.85;0.40;;;10.20;99.90;;;;;;5011828;28;20075;-63
2023/10/22 01:54:32;;;;;;;0.70;0.50;;;10.10;99.90;;;;;;5013316;28;20037;-63
2023/10/22 01:56:59;;;;;;;5.45;0.50;;;10.10;99.90;;;;;;5011581;28;20041;-63
2023/10/22 01:59:31;;;;;;;1.02;0.50;;;10.00;99.90;;;;;;5002040;28;20139;-64
2023/10/22 02:02:02;;;;;;;0.57;0.35;;;10.00;99.90;;;;;;4993375;28;20050;-64
2023/10/22 02:04:35;;;;;;;1.30;0.60;;;10.00;99.90;;;;;;5019320;28;21151;-63
2023/10/22 02:07:07;;;;;;;2.15;0.35;;;10.00;99.90;;;;;;5009378;28;20532;-63
2023/10/22 02:09:39;;;;;;;1.05;0.50;;;10.00;99.90;;;;;;5011289;28;20045;-64
2023/10/22 02:12:11;;;;;;;0.50;0.30;;;10.00;99.90;;;;;;5005244;28;20060;-63
2023/10/22 02:14:37;;;;;;;0.68;0.60;;;10.00;99.90;;;;;;5004812;28;20128;-64
2023/10/22 02:17:09;;;;;;;0.60;0.40;;;10.00;99.90;;;;;;5010143;28;20045;-63
2023/10/22 02:19:41;;;;;;;0.40;0.32;;;10.00;99.90;;;;;;5013728;28;20804;-64
2023/10/22 02:22:13;;;;;;;0.75;0.47;;;10.00;99.90;;;;;;5015155;28;20042;-63
2023/10/22 02:24:45;;;;;;;3.00;0.57;;;10.00;99.90;;;;;;4998757;28;20480;-64
2023/10/22 02:27:17;;;;;;;0.45;0.40;;;10.00;99.90;;;;;;4994606;28;20045;-63
2023/10/22 02:29:49;;;;;;;0.88;0.65;;;10.00;99.90;;;;;;5009868;28;20049;-63
2023/10/22 02:32:20;;;;;;;1.17;0.45;;;9.90;99.90;;;;;;5009926;28;20421;-63
2023/10/22 02:34:52;;;;;;;0.68;0.50;;;9.90;99.90;;;;;;5016545;28;20053;-63
2023/10/22 02:37:24;;;;;;;0.93;0.60;;;9.90;99.90;;;;;;5004767;28;20060;-64
2023/10/22 02:39:57;;;;;;;0.90;0.50;;;9.90;99.90;;;;;;5014279;28;20574;-63
2023/10/22 02:42:29;;;;;;;2.20;0.35;;;9.90;99.90;;;;;;4999449;28;20042;-64
2023/10/22 02:45:01;;;;;;;1.58;0.35;;;9.90;99.90;;;;;;5009331;28;20049;-63
2023/10/22 02:47:33;;;;;;;0.70;0.30;;;9.90;99.90;;;;;;5013987;28;20042;-63
2023/10/22 02:50:00;;;;;;;0.90;0.40;;;9.90;99.90;;;;;;5005607;28;20065;-64
2023/10/22 02:52:32;;;;;;;0.77;0.40;;;9.90;99.90;;;;;;5012480;28;20049;-63
2023/10/22 02:54:59;;;;;;;1.23;0.50;;;10.00;99.90;;;;;;5012651;28;20133;-63
2023/10/22 02:57:30;;;;;;;0.90;0.50;;;9.90;99.90;;;;;;5014848;28;20049;-63
2023/10/22 02:59:57;;;;;;;1.30;0.55;;;9.90;99.90;;;;;;5016061;28;20041;-63
2023/10/22 03:02:29;;;;;;;2.90;0.50;;;9.90;99.90;;;;;;5008496;28;20042;-64
2023/10/22 03:05:01;;;;;;;1.70;0.82;;;9.90;99.90;;;;;;5015427;28;20035;-63
2023/10/22 03:07:33;;;;;;;1.20;0.50;;;9.90;99.90;;;;;;5015291;28;20044;-64
2023/10/22 03:10:06;;;;;;;1.30;0.50;;;9.80;99.90;;;;;;5010440;28;20134;-63
2023/10/22 03:12:38;;;;;;;2.60;0.70;;;9.80;99.90;;;;;;4998277;28;20070;-63
2023/10/22 03:15:10;;;;;;;1.17;0.55;;;9.80;99.90;;;;;;5013391;28;20053;-64
2023/10/22 03:17:41;;;;;;;0.75;0.40;;;9.90;99.90;;;;;;5003499;28;20100;-64
2023/10/22 03:20:16;;;;;;;1.10;0.38;;;9.80;99.90;;;;;;5025999;28;20042;-64
2023/10/22 03:22:48;;;;;;;1.50;0.90;;;9.80;99.90;;;;;;4996423;28;20046;-63
2023/10/22 03:25:21;;;;;;;0.93;0.30;;;9.90;99.90;;;;;;5016343;28;20037;-63
2023/10/22 03:27:53;;;;;;;0.35;0.30;;;9.90;99.90;;;;;;5009491;28;20038;-63
2023/10/22 03:30:25;;;;;;;1.17;0.82;;;9.90;99.90;;;;;;5011134;28;20038;-64
2023/10/22 03:32:58;;;;;;;1.60;0.32;;;9.90;99.90;;;;;;5017262;28;20513;-63
2023/10/22 03:35:25;;;;;;;1.10;0.40;;;9.90;99.90;;;;;;5013349;28;20581;-63
2023/10/22 03:37:52;;;;;;;0.50;0.32;;;9.90;99.90;;;;;;5017171;28;20091;-64
2023/10/22 03:40:24;;;;;;;1.40;0.50;;;9.90;99.90;;;;;;5006932;28;20467;-64
2023/10/22 03:42:51;;;;;;;1.17;0.30;;;10.00;99.90;;;;;;5007098;28;20034;-63
2023/10/22 03:45:23;;;;;;;0.38;0.32;;;10.00;99.90;;;;;;5006198;28;20058;-63
2023/10/22 03:47:55;;;;;;;0.60;0.30;;;10.00;99.90;;;;;;5001290;28;20128;-64
2023/10/22 03:50:27;;;;;;;1.08;0.50;;;10.00;99.90;;;;;;5001982;28;20039;-63
2023/10/22 03:52:58;;;;;;;1.50;0.30;;;10.00;99.90;;;;;;5019104;28;20417;-64
2023/10/22 03:55:30;;;;;;;1.40;0.30;;;10.00;99.90;;;;;;5013118;28;20417;-64
2023/10/22 03:58:02;;;;;;;1.50;0.35;;;10.00;99.90;;;;;;5010750;28;20061;-63
2023/10/22 04:00:34;;;;;;;1.42;0.40;;;10.00;99.90;;;;;;5015804;28;20038;-64
2023/10/22 04:03:06;;;;;;;0.40;0.40;;;10.00;99.90;;;;;;5018871;28;20034;-63
2023/10/22 04:05:37;;;;;;;0.77;0.30;;;10.00;99.90;;;;;;4994503;28;20449;-63
2023/10/22 04:08:09;;;;;;;2.22;0.65;;;10.00;99.90;;;;;;5017642;28;20037;-64
2023/10/22 04:10:45;;;;;;;0.65;0.40;;;10.00;99.90;;;;;;5013011;28;20084;-64
2023/10/22 04:13:12;;;;;;;0.47;0.30;;;10.00;99.90;;;;;;5012994;28;20435;-63
2023/10/22 04:15:45;;;;;;;1.63;0.40;;;10.00;99.90;;;;;;5004417;28;20108;-63
2023/10/22 04:18:19;;;;;;;0.57;0.40;;;10.00;99.90;;;;;;4999377;28;20426;-63
2023/10/22 04:20:51;;;;;;;1.17;0.38;;;9.90;99.90;;;;;;5008309;28;20033;-63
2023/10/22 04:23:24;;;;;;;0.73;0.50;;;9.90;99.90;;;;;;5010672;28;20156;-63
2023/10/22 04:25:56;;;;;;;1.08;0.32;;;9.90;99.90;;;;;;5011607;28;20575;-63
2023/10/22 04:28:28;;;;;;;0.90;0.40;;;9.80;99.90;;;;;;5010263;28;20124;-63
2023/10/22 04:31:00;;;;;;;1.42;0.40;;;9.80;99.90;;;;;;5015288;28;20036;-63
2023/10/22 04:33:32;;;;;;;1.38;0.30;;;9.80;99.90;;;;;;5012251;28;20040;-63
2023/10/22 04:36:04;;;;;;;0.75;0.40;;;9.80;99.90;;;;;;5016242;28;20510;-63
2023/10/22 04:38:35;;;;;;;1.13;1.00;;;9.80;99.90;;;;;;5012169;28;20050;-63
2023/10/22 04:41:11;;;;;;;0.98;0.35;;;9.80;99.90;;;;;;5007607;28;20417;-63
2023/10/22 04:43:43;;;;;;;0.95;0.50;;;9.80;99.90;;;;;;5006686;28;20046;-63
2023/10/22 04:46:15;;;;;;;1.20;0.43;;;9.80;99.90;;;;;;4996641;28;20410;-63
2023/10/22 04:48:47;;;;;;;0.77;0.50;;;9.80;99.90;;;;;;5004866;28;20125;-63
2023/10/22 04:51:19;;;;;;;1.25;0.47;;;9.80;99.90;;;;;;5003135;28;20049;-63
2023/10/22 04:53:51;;;;;;;0.60;0.40;;;9.70;99.90;;;;;;5024630;28;20058;-63
2023/10/22 04:56:17;;;;;;;0.77;0.50;;;9.70;99.90;;;;;;5005360;28;20398;-63
2023/10/22 04:58:49;;;;;;;1.25;0.40;;;9.70;99.90;;;;;;5019606;28;20537;-64
2023/10/22 05:01:21;;;;;;;0.60;0.40;;;9.70;99.90;;;;;;5004535;28;20041;-63
2023/10/22 05:03:52;;;;;;;3.30;1.92;;;9.70;99.90;;;;;;5011567;28;20490;-63
2023/10/22 05:06:24;;;;;;;0.80;0.60;;;9.70;99.90;;;;;;5005698;28;20052;-63
2023/10/22 05:08:56;;;;;;;1.08;0.50;;;9.70;99.90;;;;;;5008452;28;20038;-63
2023/10/22 05:11:28;;;;;;;3.88;0.50;;;9.70;99.90;;;;;;5011905;28;20592;-63
2023/10/22 05:14:00;;;;;;;1.50;0.55;;;9.70;99.90;;;;;;5011529;28;20132;-63
2023/10/22 05:16:33;;;;;;;0.88;0.50;;;9.70;99.90;;;;;;5004276;28;20204;-63
2023/10/22 05:19:05;;;;;;;2.75;0.65;;;9.70;99.90;;;;;;5004515;28;20121;-63
2023/10/22 05:21:37;;;;;;;0.50;0.30;;;9.70;99.90;;;;;;5003903;28;20116;-63
2023/10/22 05:24:09;;;;;;;2.53;0.45;;;9.70;99.90;;;;;;5024579;28;20034;-63
2023/10/22 05:26:41;;;;;;;0.68;0.40;;;9.70;99.90;;;;;;5012802;28;20046;-63
2023/10/22 05:29:13;;;;;;;1.52;0.50;;;9.70;99.90;;;;;;5013345;28;20049;-63
2023/10/22 05:31:45;;;;;;;1.63;0.40;;;9.60;99.90;;;;;;5011053;28;20548;-63
2023/10/22 05:34:17;;;;;;;0.73;0.40;;;9.60;99.90;;;;;;5014389;28;20049;-63
2023/10/22 05:36:49;;;;;;;1.38;0.50;;;9.60;99.90;;;;;;5008201;28;20503;-63
2023/10/22 05:39:20;;;;;;;0.47;0.30;;;9.60;99.90;;;;;;5007161;28;20425;-63
2023/10/22 05:41:52;;;;;;;0.50;0.40;;;9.60;99.90;;;;;;5006806;28;20042;-64
2023/10/22 05:44:19;;;;;;;0.77;0.43;;;9.60;99.90;;;;;;5002154;28;20113;-63
2023/10/22 05:46:51;;;;;;;0.55;0.40;;;9.60;99.90;;;;;;5014690;28;20935;-63
2023/10/22 05:49:23;;;;;;;0.73;0.32;;;9.60;99.90;;;;;;5003123;28;20642;-63
2023/10/22 05:51:54;;;;;;;1.83;0.63;;;9.50;99.90;;;;;;5002960;28;20062;-63
2023/10/22 05:54:21;;;;;;;2.53;0.47;;;9.50;99.90;;;;;;5007771;28;20045;-63
2023/10/22 05:56:53;;;;;;;0.65;0.38;;;9.50;99.90;;;;;;5017742;28;20058;-63
2023/10/22 05:59:26;;;;;;;1.85;0.60;;;9.50;99.90;;;;;;5003011;28;20052;-63
2023/10/22 06:01:58;;;;;;;0.57;0.43;;;9.50;99.90;;;;;;5005554;28;20093;-63
2023/10/22 06:04:24;;;;;;;2.15;0.55;;;9.50;99.90;;;;;;5011228;28;20125;-63
2023/10/22 06:06:56;;;;;;;2.17;0.60;;;9.50;99.90;;;;;;5012881;28;20387;-63
2023/10/22 06:09:28;;;;;;;1.30;0.70;;;9.50;99.90;;;;;;5008667;28;20541;-63
2023/10/22 06:12:00;;;;;;;0.95;0.55;;;9.50;99.90;;;;;;5010596;28;20513;-64
2023/10/22 06:14:27;;;;;;;2.75;0.60;;;9.40;99.90;;;;;;5010465;28;20775;-63
2023/10/22 06:16:54;;;;;;;2.38;0.47;;;9.40;99.90;;;;;;5011368;28;20050;-65
2023/10/22 06:19:26;;;;;;;2.38;0.60;;;9.40;99.90;;;;;;4995212;28;20124;-64
2023/10/22 06:21:58;;;;;;;1.33;0.55;;;9.40;99.90;;;;;;5001843;28;20049;-63
2023/10/22 06:24:30;;;;;;;0.65;0.50;;;9.40;99.90;;;;;;5002855;28;20073;-64
2023/10/22 06:27:02;;;;;;;1.17;0.50;;;9.40;99.90;;;;;;5016985;28;20034;-64
2023/10/22 06:29:33;;;;;;;3.15;0.52;;;9.40;99.90;;;;;;5007486;28;20038;-64
2023/10/22 06:32:05;;;;;;;1.02;0.60;;;9.40;99.90;;;;;;5014842;28;20068;-64
2023/10/22 06:34:37;;;;;;;1.48;0.63;;;9.40;99.90;;;;;;5012008;28;20057;-64
2023/10/22 06:37:09;;;;;;;1.85;0.70;;;9.40;99.90;;;;;;5012157;28;20053;-64
2023/10/22 06:39:41;;;;;;;0.75;0.40;;;9.50;99.90;;;;;;5006253;28;20525;-63
2023/10/22 06:42:13;;;;;;;1.75;0.63;;;9.40;99.90;;;;;;5013529;28;20489;-64
2023/10/22 06:44:45;;;;;;;2.05;0.70;;;9.50;99.90;;;;;;5014401;28;20581;-64
2023/10/22 06:47:17;;;;;;;0.70;0.57;;;9.50;99.90;;;;;;5007221;28;20041;-64
2023/10/22 06:49:49;;;;;;;0.95;0.50;;;9.50;99.90;;;;;;5012094;28;20052;-64
2023/10/22 06:52:16;;;;;;;2.08;0.70;;;9.50;99.90;;;;;;5011558;28;20052;-64
2023/10/22 06:54:47;;;;;;;1.05;0.57;;;9.50;99.90;;;;;;5004753;28;20089;-64
2023/10/22 06:57:19;;;;;;;1.02;0.50;;;9.60;99.90;;;;;;5013365;28;20046;-64
2023/10/22 06:59:52;;;;;;;1.15;0.60;;;9.70;99.90;;;;;;5007970;28;20054;-64
2023/10/22 07:02:19;;;;;;;1.33;0.57;;;9.70;99.90;;;;;;5015795;28;20052;-64
2023/10/22 07:04:52;;;;;;;0.95;0.70;;;9.70;99.90;;;;;;5013306;28;20038;-64
2023/10/22 07:07:24;;;;;;;0.57;0.50;;;9.70;99.90;;;;;;5017778;28;20037;-64
2023/10/22 07:09:56;;;;;;;1.77;0.60;;;9.80;99.90;;;;;;5016364;28;20052;-64
2023/10/22 07:12:28;;;;;;;0.88;0.40;;;9.80;99.90;;;;;;5008014;28;20037;-64
2023/10/22 07:14:55;;;;;;;1.45;0.93;;;9.80;99.90;;;;;;5020054;28;20053;-64
2023/10/22 07:17:27;;;;;;;0.80;0.50;;;9.90;99.90;;;;;;5007438;28;20046;-64
2023/10/22 07:19:54;;;;;;;6.88;1.15;;;10.00;99.90;;;;;;5014040;28;20045;-64
2023/10/22 07:22:26;;;;;;;1.02;0.45;;;10.00;99.90;;;;;;5003984;28;20040;-64
2023/10/22 07:24:57;;;;;;;0.80;0.40;;;10.10;99.90;;;;;;5009121;28;20518;-64
2023/10/22 07:27:30;;;;;;;0.85;0.50;;;10.20;99.90;;;;;;5006333;28;20406;-63
2023/10/22 07:29:57;;;;;;;4.07;0.65;;;10.20;99.90;;;;;;5007017;28;20041;-64
2023/10/22 07:32:29;;;;;;;1.20;0.50;;;10.30;99.90;;;;;;5013850;28;20048;-64
2023/10/22 07:35:00;;;;;;;0.98;0.55;;;10.40;99.90;;;;;;5012040;28;20084;-64
2023/10/22 07:37:32;;;;;;;2.83;0.57;;;10.50;99.90;;;;;;5012543;28;20049;-64
2023/10/22 07:39:59;;;;;;;1.23;0.77;;;10.50;99.90;;;;;;5015375;28;20050;-64
2023/10/22 07:42:31;;;;;;;2.40;0.70;;;10.60;99.90;;;;;;5009958;28;20037;-64
2023/10/22 07:45:03;;;;;;;1.65;0.50;;;10.70;99.90;;;;;;5014957;28;20041;-63
2023/10/22 07:47:36;;;;;;;1.75;0.65;;;10.70;99.90;;;;;;5009073;28;20043;-64
2023/10/22 07:50:08;;;;;;;3.38;0.73;;;10.80;99.90;;;;;;5010122;28;20125;-64
2023/10/22 07:52:40;;;;;;;1.27;0.52;;;10.90;99.90;;;;;;5001591;28;20140;-64
2023/10/22 07:55:12;;;;;;;2.05;0.60;;;10.90;99.90;;;;;;5000270;28;20120;-63
2023/10/22 07:57:39;;;;;;;1.92;0.70;;;10.90;99.90;;;;;;5005844;28;20137;-64
2023/10/22 08:00:11;;;;;;;1.10;0.50;;;11.00;99.90;;;;;;5002733;28;20548;-63
2023/10/22 08:02:43;;;;;;;3.47;0.70;;;11.10;99.90;;;;;;5008176;28;20125;-64
2023/10/22 08:05:15;;;;;;;1.58;0.60;;;11.10;99.90;;;;;;5015364;28;20497;-64
2023/10/22 08:07:47;;;;;;;1.85;0.55;;;11.20;99.90;;;;;;5012755;28;20121;-64
2023/10/22 08:10:19;;;;;;;2.17;0.70;;;11.20;99.90;;;;;;5009818;28;20042;-64
2023/10/22 08:12:51;;;;;;;1.30;0.60;;;11.30;99.90;;;;;;5013131;28;20053;-64
2023/10/22 08:15:23;;;;;;;1.77;0.40;;;11.40;99.90;;;;;;5008057;28;20065;-64
2023/10/22 08:17:55;;;;;;;1.00;0.52;;;11.40;99.90;;;;;;5027088;28;20053;-64
2023/10/22 08:20:27;;;;;;;1.67;0.52;;;11.50;99.90;;;;;;5010750;28;20049;-63
2023/10/22 08:22:59;;;;;;;0.52;0.40;;;11.50;99.90;;;;;;5002395;28;20052;-63
2023/10/22 08:25:31;;;;;;;2.15;0.60;;;11.60;99.90;;;;;;5008897;28;20065;-64
2023/10/22 08:28:03;;;;;;;1.98;0.47;;;11.70;99.90;;;;;;4993166;28;20512;-63
2023/10/22 08:30:35;;;;;;;1.65;0.60;;;11.70;99.90;;;;;;5008785;28;20051;-64
2023/10/22 08:33:07;;;;;;;2.88;0.68;;;11.70;99.90;;;;;;4999941;28;20517;-64
2023/10/22 08:35:39;;;;;;;1.80;0.50;;;11.80;99.90;;;;;;5014399;28;20038;-63
2023/10/22 08:38:13;;;;;;;1.55;0.70;;;11.90;99.90;;;;;;5011151;28;20042;-64
2023/10/22 08:40:45;;;;;;;1.42;0.55;;;11.90;99.90;;;;;;5014127;28;20056;-64
2023/10/22 08:43:18;;;;;;;4.72;0.80;;;12.00;99.90;;;;;;5016700;28;20029;-64
2023/10/22 08:45:46;;;;;;;2.10;0.70;;;12.10;99.90;;;;;;5007416;28;20117;-64
2023/10/22 08:48:19;;;;;;;1.48;0.65;;;12.20;99.90;;;;;;5016776;28;20418;-64
2023/10/22 08:50:52;;;;;;;2.25;0.47;;;12.30;99.90;;;;;;5006444;28;20053;-64
2023/10/22 08:53:24;;;;;;;1.73;0.52;;;12.40;99.90;;;;;;5011740;28;20045;-64
2023/10/22 08:55:56;;;;;;;3.58;0.55;;;12.40;99.90;;;;;;5004461;28;20046;-64
2023/10/22 08:58:28;;;;;;;1.80;1.10;;;12.50;99.90;;;;;;5005303;28;20053;-64
2023/10/22 09:00:55;;;;;;;4.03;0.68;;;12.50;99.90;;;;;;5008062;28;20052;-64
2023/10/22 09:03:30;;;;;;;2.42;0.50;;;12.60;99.90;;;;;;5006499;28;20501;-64
2023/10/22 09:05:57;;;;;;;1.05;0.70;;;12.70;99.90;;;;;;5015997;28;20043;-64
2023/10/22 09:08:45;;;;;;;3.15;0.73;;;12.60;99.90;;;;;;5011190;28;20092;-64
2023/10/22 09:11:18;;;;;;;0.75;0.40;;;12.70;99.90;;;;;;5010541;28;20033;-65
2023/10/22 09:13:46;;;;;;;3.38;1.00;;;12.80;99.90;;;;;;5012598;28;20054;-65
2023/10/22 09:16:32;;;;;;;2.13;0.50;;;12.90;99.90;;;;;;5014723;28;20172;-64
2023/10/22 09:19:03;;;;;;;1.15;0.47;;;13.00;99.90;;;;;;5009701;28;20034;-64
2023/10/22 09:21:43;;;;;;;2.92;0.88;;;13.00;99.90;;;;;;5008078;28;20036;-64
2023/10/22 09:24:11;;;;;;;0.90;0.40;;;13.00;99.90;;;;;;5012263;28;20046;-67
2023/10/22 09:26:47;;;;;;;4.00;0.70;;;13.00;99.90;;;;;;5001462;28;20044;-67
2023/10/22 09:29:15;;;;;;;3.03;0.57;;;13.10;99.90;;;;;;5004291;28;20061;-64
2023/10/22 09:31:56;;;;;;;2.05;0.95;;;13.10;99.90;;;;;;5002690;28;20254;-65
2023/10/22 09:34:32;;;;;;;1.67;0.50;;;13.10;99.90;;;;;;5013769;28;20041;-64
2023/10/22 09:37:03;;;;;;;1.23;0.40;;;13.20;99.90;;;;;;5007876;28;20037;-64
2023/10/22 09:39:38;;;;;;;0.85;0.50;;;13.30;99.90;;;;;;5010299;28;20516;-65
2023/10/22 09:42:11;;;;;;;3.47;0.57;;;13.30;99.90;;;;;;5009362;28;20809;-64
2023/10/22 09:44:44;;;;;;;3.00;0.80;;;13.30;99.90;;;;;;5011883;28;20103;-65
2023/10/22 09:47:22;;;;;;;1.20;0.40;;;13.40;99.90;;;;;;5011087;28;20548;-65
2023/10/22 09:50:04;;;;;;;2.97;0.40;;;13.40;99.90;;;;;;5007043;28;20052;-65
2023/10/22 09:52:42;;;;;;;1.30;0.55;;;13.40;99.90;;;;;;5017415;28;20037;-64
2023/10/22 09:55:15;;;;;;;1.45;0.50;;;13.40;99.90;;;;;;5007352;28;20971;-64
2023/10/22 09:57:45;;;;;;;3.40;0.50;;;13.40;99.90;;;;;;5002854;28;20135;-66
2023/10/22 10:00:19;;;;;;;2.13;0.52;;;13.50;99.90;;;;;;5003515;28;20142;-65
2023/10/22 10:02:50;;;;;;;2.00;0.57;;;13.60;99.90;;;;;;5009089;28;20096;-64
2023/10/22 10:05:23;;;;;;;1.50;0.50;;;13.60;99.90;;;;;;5011981;28;20506;-65
2023/10/22 10:07:54;;;;;;;4.20;0.50;;;13.60;99.90;;;;;;5004495;28;20096;-65
2023/10/22 10:10:28;;;;;;;2.72;2.03;;;13.70;99.90;;;;;;5012779;28;20037;-65
2023/10/22 10:13:00;;;;;;;3.35;1.48;;;13.70;99.90;;;;;;5020796;28;20033;-65
2023/10/22 10:15:33;;;;;;;3.38;1.85;;;13.80;99.90;;;;;;5015403;28;20046;-65
2023/10/22 10:18:01;;;;;;;1.52;0.70;;;13.70;99.90;;;;;;5014688;28;20748;-65
2023/10/22 10:20:31;;;;;;;3.05;0.90;;;13.80;99.90;;;;;;5008503;28;20129;-65
2023/10/22 10:23:18;;;;;;;2.03;0.45;;;13.80;99.90;;;;;;5015937;28;20030;-65
2023/10/22 10:25:50;;;;;;;2.22;0.47;;;13.90;99.90;;;;;;5019384;28;20423;-65
2023/10/22 10:28:40;;;;;;;2.05;0.30;;;14.00;99.90;;;;;;5013169;28;20512;-65
2023/10/22 10:31:27;;;;;;;3.80;0.60;;;14.00;99.90;;;;;;5008290;28;20042;-65
2023/10/22 10:34:02;;;;;;;3.40;0.95;;;14.00;99.90;;;;;;5024340;28;20565;-65
2023/10/22 10:36:35;;;;;;;3.88;0.60;;;14.00;99.90;;;;;;5008122;28;20048;-65
2023/10/22 10:39:42;;;;;;;1.70;0.70;;;14.00;99.90;;;;;;5016165;28;20050;-65
2023/10/22 10:42:11;;;;;;;5.07;2.05;;;14.20;99.90;;;;;;4967087;28;20510;-65
2023/10/22 10:45:02;;;;;;;1.33;0.70;;;14.30;99.90;;;;;;5005140;28;20035;-65
2023/10/22 10:47:39;;;;;;;1.38;0.40;;;14.30;99.90;;;;;;5016368;28;20040;-64
2023/10/22 10:50:17;;;;;;;1.90;0.50;;;14.30;99.90;;;;;;5015024;28;20029;-65
2023/10/22 10:52:49;;;;;;;3.97;0.98;;;14.30;99.90;;;;;;5012947;28;20517;-64
2023/10/22 10:55:18;;;;;;;3.03;1.00;;;14.30;99.90;;;;;;5004257;28;20100;-64
2023/10/22 10:57:52;;;;;;;2.80;0.63;;;14.40;99.90;;;;;;5018656;28;20541;-65
2023/10/22 11:00:33;;;;;;;1.02;0.50;;;14.40;99.90;;;;;;5002777;28;20469;-64
2023/10/22 11:03:06;;;;;;;1.40;0.63;;;14.40;99.90;;;;;;5008308;28;20042;-64
2023/10/22 11:05:40;;;;;;;1.83;0.43;;;14.30;99.90;;;;;;5008012;28;20049;-64
2023/10/22 11:08:20;;;;;;;1.52;0.30;;;14.20;99.90;;;;;;5015104;28;20041;-64
2023/10/22 11:10:52;;;;;;;1.33;0.40;;;14.20;99.90;;;;;;5014528;28;20624;-64
2023/10/22 11:13:27;;;;;;;1.98;0.40;;;14.30;99.90;;;;;;5020714;28;20049;-64
2023/10/22 11:16:06;;;;;;;2.90;0.57;;;14.30;99.90;;;;;;5019476;28;20087;-64
2023/10/22 11:18:59;;;;;;;5.97;1.08;;;14.50;99.90;;;;;;5020720;28;20433;-64
2023/10/22 11:21:35;;;;;;;2.08;0.43;;;14.60;99.90;;;;;;5009477;28;20046;-64
2023/10/22 11:24:07;;;;;;;1.60;0.80;;;14.50;99.90;;;;;;5018516;28;20124;-64
2023/10/22 11:26:39;;;;;;;1.58;0.63;;;14.50;99.90;;;;;;5015660;28;20060;-64
2023/10/22 11:29:06;;;;;;;2.03;0.47;;;14.60;99.90;;;;;;5015068;28;20040;-64
2023/10/22 11:31:39;;;;;;;1.20;0.45;;;14.50;99.90;;;;;;5024600;28;20034;-64
2023/10/22 11:34:14;;;;;;;0.98;0.45;;;14.50;99.90;;;;;;5017751;28;20049;-64
2023/10/22 11:36:46;;;;;;;1.35;0.52;;;14.50;99.90;;;;;;5011576;28;20059;-64
2023/10/22 11:39:19;;;;;;;2.08;0.40;;;14.60;99.90;;;;;;5021189;28;20037;-64
2023/10/22 11:42:00;;;;;;;2.13;0.60;;;14.60;99.90;;;;;;5019829;28;20048;-64
2023/10/22 11:44:34;;;;;;;1.25;0.47;;;14.70;99.90;;;;;;5019114;28;20575;-64
2023/10/22 11:47:26;;;;;;;1.95;0.63;;;14.70;99.90;;;;;;5019036;28;20497;-64
2023/10/22 11:49:54;;;;;;;1.60;0.52;;;14.80;99.90;;;;;;5018684;28;20037;-64
2023/10/22 11:52:36;;;;;;;;;;;14.90;99.90;;;;;;5015173;28;20037;-64
2023/10/22 11:55:12;;;;;;;1.40;0.75;;;14.90;99.90;;;;;;5019029;28;19931;-64
2023/10/22 11:57:44;;;;;;;1.60;0.57;;;14.90;99.90;;;;;;5017396;28;20048;-64
2023/10/22 12:00:16;;;;;;;1.52;0.60;;;14.90;99.90;;;;;;5015874;28;20494;-64
2023/10/22 12:02:47;;;;;;;1.95;0.40;;;15.00;99.90;;;;;;5010003;28;20061;-64
2023/10/22 12:05:20;;;;;;;5.05;1.08;;;15.10;99.90;;;;;;5013280;28;20116;-64
2023/10/22 12:07:52;;;;;;;3.90;0.68;;;15.20;99.90;;;;;;5009597;28;20057;-64
2023/10/22 12:10:24;;;;;;;2.55;0.63;;;15.20;99.90;;;;;;5017076;28;20041;-64
2023/10/22 12:12:56;;;;;;;3.35;0.68;;;15.30;99.90;;;;;;5023711;28;20603;-64
2023/10/22 12:15:28;;;;;;;4.20;1.13;;;15.40;99.90;;;;;;5022130;28;20034;-64
2023/10/22 12:18:00;;;;;;;5.20;1.33;;;15.60;99.90;;;;;;5018629;28;20056;-64
2023/10/22 12:20:31;;;;;;;3.13;0.70;;;15.70;99.90;;;;;;5017535;28;20030;-64
2023/10/22 12:22:59;;;;;;;1.13;0.50;;;15.70;99.90;;;;;;5020444;28;20030;-64
2023/10/22 12:25:31;;;;;;;1.38;0.40;;;15.70;99.90;;;;;;5004697;28;20515;-63
2023/10/22 12:28:03;;;;;;;2.25;0.60;;;15.60;99.90;;;;;;5022712;28;20041;-64
2023/10/22 12:30:35;;;;;;;2.53;0.45;;;15.60;99.90;;;;;;4995321;28;20446;-64
2023/10/22 12:33:10;;;;;;;0.75;0.40;;;15.50;99.90;;;;;;5010680;28;20145;-64
2023/10/22 12:35:42;;;;;;;3.75;0.50;;;15.60;99.90;;;;;;5006513;28;20057;-64
2023/10/22 12:38:14;;;;;;;2.80;0.57;;;15.20;99.90;;;;;;5012114;28;20056;-66
2023/10/22 12:40:41;;;;;;;2.35;0.40;;;15.20;99.90;;;;;;5015287;28;20565;-64
2023/10/22 12:43:12;;;;;;;1.30;0.38;;;15.30;99.90;;;;;;5015268;28;20073;-64
2023/10/22 12:45:44;;;;;;;2.35;0.50;;;15.30;99.90;;;;;;5016286;28;20065;-64
2023/10/22 12:48:11;;;;;;;2.38;0.57;;;15.50;99.90;;;;;;5010811;28;20032;-64
2023/10/22 12:50:38;;;;;;;1.60;0.45;;;15.60;99.90;;;;;;5015284;28;20033;-64
2023/10/22 12:53:11;;;;;;;2.75;0.60;;;15.70;99.90;;;;;;5009292;28;20044;-64
2023/10/22 12:55:52;;;;;;;2.15;0.75;;;15.60;99.90;;;;;;5013047;28;20053;-64
2023/10/22 12:58:24;;;;;;;1.30;0.35;;;15.60;99.90;;;;;;5012119;28;20034;-64
2023/10/22 13:00:57;;;;;;;2.20;0.30;;;15.60;99.90;;;;;;5012335;28;20042;-64
2023/10/22 13:03:29;;;;;;;1.50;0.55;;;15.50;99.90;;;;;;5008928;28;20133;-64
2023/10/22 13:06:05;;;;;;;0.80;0.30;;;15.60;99.90;;;;;;5008259;28;20046;-64
2023/10/22 13:08:37;;;;;;;0.57;0.30;;;15.70;99.90;;;;;;5006518;28;20080;-64
2023/10/22 13:11:09;;;;;;;0.55;0.30;;;15.80;99.90;;;;;;5010944;28;20125;-64
2023/10/22 13:13:41;;;;;;;0.63;0.60;;;15.80;99.90;;;;;;5015618;28;20134;-64
2023/10/22 13:16:13;;;;;;;3.38;0.50;;;15.70;99.90;;;;;;5014066;28;20048;-64